Time;durP1;ratioP1;P1;durP2;ratioP2;P2;SDS_P1;SDS_P2;PMS_P1;PMS_P2;Temp;Humidity;BMP_temperature;BMP_pressure;BME280_temperature;BME280_humidity;BME280_pressure;Samples;Min_cycle;Max_cycle;Signal;HPM_P1;HPM_P2
2022/06/26 00:02:19;;;;;;;32.92;23.30;;;19.90;99.90;;;;;;5038827;28;20209;-82
2022/06/26 00:04:46;;;;;;;35.65;23.83;;;19.80;99.90;;;;;;5034516;28;20766;-81
2022/06/26 00:07:13;;;;;;;38.92;24.35;;;19.80;99.90;;;;;;5038961;28;20316;-81
2022/06/26 00:09:40;;;;;;;32.20;22.40;;;19.80;99.90;;;;;;5037184;28;20593;-82
2022/06/26 00:12:07;;;;;;;34.92;23.80;;;19.80;99.90;;;;;;5037522;28;20209;-80
2022/06/26 00:14:34;;;;;;;34.85;22.65;;;19.80;99.90;;;;;;5038284;28;20213;-81
2022/06/26 00:17:01;;;;;;;26.52;21.30;;;19.80;99.90;;;;;;5035132;28;20214;-81
2022/06/26 00:19:28;;;;;;;33.80;23.92;;;19.80;99.90;;;;;;5039429;28;20648;-81
2022/06/26 00:21:55;;;;;;;32.90;22.02;;;19.80;99.90;;;;;;5036652;28;20263;-81
2022/06/26 00:24:22;;;;;;;31.60;22.73;;;19.80;99.90;;;;;;5039648;28;20213;-81
2022/06/26 00:26:48;;;;;;;30.90;21.88;;;19.90;99.90;;;;;;5037369;28;20274;-81
2022/06/26 00:29:15;;;;;;;31.05;22.83;;;19.90;99.90;;;;;;5038359;28;20209;-80
2022/06/26 00:31:42;;;;;;;35.38;23.38;;;19.90;99.90;;;;;;5040057;28;20735;-80
2022/06/26 00:34:09;;;;;;;32.45;22.70;;;19.90;99.90;;;;;;5036101;28;20217;-79
2022/06/26 00:36:36;;;;;;;35.85;23.35;;;19.90;99.90;;;;;;5038719;28;20634;-81
2022/06/26 00:39:03;;;;;;;27.98;20.98;;;19.90;99.90;;;;;;5036724;28;20248;-81
2022/06/26 00:41:30;;;;;;;31.63;21.80;;;19.90;99.90;;;;;;5037233;28;20217;-81
2022/06/26 00:43:56;;;;;;;33.70;23.10;;;19.80;99.90;;;;;;5038279;28;20241;-80
2022/06/26 00:46:24;;;;;;;33.08;24.38;;;19.80;99.90;;;;;;5036678;28;20645;-80
2022/06/26 00:48:52;;;;;;;36.85;25.23;;;19.80;99.90;;;;;;5038621;28;20230;-80
2022/06/26 00:51:20;;;;;;;34.38;24.35;;;19.80;99.90;;;;;;5036085;28;20283;-81
2022/06/26 00:53:47;;;;;;;38.20;24.85;;;19.70;99.90;;;;;;5038653;28;20220;-78
2022/06/26 00:56:14;;;;;;;42.00;25.80;;;19.70;99.90;;;;;;5036007;28;20293;-79
2022/06/26 00:58:41;;;;;;;40.58;26.77;;;19.70;99.90;;;;;;5037845;28;20213;-79
2022/06/26 01:01:08;;;;;;;37.83;25.60;;;19.70;99.90;;;;;;5038657;28;20198;-77
2022/06/26 01:03:35;;;;;;;44.25;27.92;;;19.60;99.90;;;;;;5034706;28;20242;-78
2022/06/26 01:06:06;;;;;;;46.08;28.17;;;19.60;99.90;;;;;;5037548;28;20213;-78
2022/06/26 01:08:34;;;;;;;42.30;28.05;;;19.70;99.90;;;;;;5036894;28;20633;-78
2022/06/26 01:11:02;;;;;;;30.00;20.75;;;19.60;99.90;;;;;;5034889;28;20284;-79
2022/06/26 01:13:29;;;;;;;36.63;23.90;;;19.40;99.90;;;;;;5042167;28;20546;-79
2022/06/26 01:15:55;;;;;;;37.17;24.45;;;19.40;99.90;;;;;;5039273;28;20210;-79
2022/06/26 01:18:22;;;;;;;34.35;24.08;;;19.40;99.90;;;;;;5041138;28;20605;-80
2022/06/26 01:20:54;;;;;;;38.22;24.30;;;19.30;99.90;;;;;;5038867;28;20602;-79
2022/06/26 01:23:21;;;;;;;51.40;27.85;;;19.20;99.90;;;;;;5041015;28;20291;-78
2022/06/26 01:25:48;;;;;;;38.72;24.65;;;19.30;99.90;;;;;;5038883;28;20311;-76
2022/06/26 01:28:16;;;;;;;37.33;21.33;;;19.20;99.90;;;;;;5046107;28;20251;-76
2022/06/26 01:30:44;;;;;;;25.15;16.85;;;19.20;99.90;;;;;;5040587;28;20264;-76
2022/06/26 01:33:11;;;;;;;23.02;14.93;;;19.10;99.90;;;;;;5040854;28;20221;-77
2022/06/26 01:35:38;;;;;;;18.80;13.30;;;19.00;99.90;;;;;;5041849;28;20278;-79
2022/06/26 01:38:11;;;;;;;25.70;14.07;;;18.90;99.90;;;;;;5039253;28;20335;-78
2022/06/26 01:40:38;;;;;;;30.77;16.15;;;18.90;99.90;;;;;;5040068;28;20285;-76
2022/06/26 01:43:06;;;;;;;28.15;17.40;;;18.80;99.90;;;;;;5040916;28;20267;-78
2022/06/26 01:45:32;;;;;;;25.10;17.70;;;18.80;99.90;;;;;;5041230;28;20245;-77
2022/06/26 01:47:59;;;;;;;30.00;19.05;;;18.70;99.90;;;;;;5039274;28;20627;-76
2022/06/26 01:50:26;;;;;;;24.45;16.73;;;18.80;99.90;;;;;;5041533;28;20229;-76
2022/06/26 01:52:53;;;;;;;31.00;20.30;;;18.70;99.90;;;;;;5039056;28;20233;-78
2022/06/26 01:55:20;;;;;;;31.83;20.30;;;18.80;99.90;;;;;;5041707;28;20262;-77
2022/06/26 01:57:46;;;;;;;22.45;15.80;;;18.80;99.90;;;;;;5040435;28;20206;-79
2022/06/26 02:00:16;;;;;;;24.30;16.33;;;18.70;99.90;;;;;;5039868;28;20653;-80
2022/06/26 02:02:42;;;;;;;26.67;17.90;;;18.70;99.90;;;;;;5042180;28;20217;-80
2022/06/26 02:05:09;;;;;;;27.55;18.33;;;18.60;99.90;;;;;;5041645;28;20317;-79
2022/06/26 02:07:36;;;;;;;33.05;20.60;;;18.70;99.90;;;;;;5038948;28;20618;-79
2022/06/26 02:15:58;;;;;;;34.15;21.25;;;18.60;99.90;;;;;;5026690;28;20240;-77
2022/06/26 02:18:26;;;;;;;33.90;20.13;;;18.60;99.90;;;;;;5036720;28;20541;-77
2022/06/26 02:20:53;;;;;;;36.00;22.95;;;18.60;99.90;;;;;;5037858;28;20572;-78
2022/06/26 02:23:20;;;;;;;32.25;21.00;;;18.60;99.90;;;;;;5038758;28;20292;-78
2022/06/26 02:25:47;;;;;;;30.63;20.20;;;18.60;99.90;;;;;;5040096;28;20213;-78
2022/06/26 02:28:16;;;;;;;30.08;18.83;;;18.50;99.90;;;;;;5040667;28;20574;-76
2022/06/26 02:30:44;;;;;;;30.67;19.10;;;18.50;99.90;;;;;;5037437;28;20245;-77
2022/06/26 02:33:11;;;;;;;24.45;16.25;;;18.40;99.90;;;;;;5037981;28;20225;-77
2022/06/26 02:35:38;;;;;;;24.50;17.23;;;18.40;99.90;;;;;;5040313;28;20213;-76
2022/06/26 02:38:04;;;;;;;23.42;15.98;;;18.40;99.90;;;;;;5040494;28;20734;-77
2022/06/26 02:40:32;;;;;;;22.95;14.82;;;18.30;99.90;;;;;;5040844;28;20647;-77
2022/06/26 02:42:58;;;;;;;25.75;15.63;;;18.20;99.90;;;;;;5037986;28;20745;-75
2022/06/26 02:45:25;;;;;;;16.38;12.60;;;18.20;99.90;;;;;;5040007;28;20611;-76
2022/06/26 02:47:52;;;;;;;20.98;13.93;;;18.20;99.90;;;;;;5038282;28;20313;-76
2022/06/26 02:50:19;;;;;;;17.77;12.68;;;18.10;99.90;;;;;;5040377;28;20336;-77
2022/06/26 02:52:46;;;;;;;17.80;13.45;;;18.10;99.90;;;;;;5039285;28;20268;-76
2022/06/26 02:55:13;;;;;;;18.33;12.82;;;18.10;99.90;;;;;;5037784;28;20311;-77
2022/06/26 02:57:40;;;;;;;20.57;12.60;;;18.00;99.90;;;;;;5038122;28;20210;-77
2022/06/26 03:00:11;;;;;;;19.33;13.60;;;18.00;99.90;;;;;;5040054;28;20251;-76
2022/06/26 03:02:38;;;;;;;20.20;13.80;;;17.90;99.90;;;;;;5038885;28;20240;-77
2022/06/26 03:05:08;;;;;;;17.58;14.02;;;17.80;99.90;;;;;;5039242;28;20290;-78
2022/06/26 03:07:35;;;;;;;20.77;13.15;;;17.80;99.90;;;;;;5039958;28;20217;-78
2022/06/26 03:10:03;;;;;;;20.13;14.45;;;17.80;99.90;;;;;;5037803;28;20572;-78
2022/06/26 03:12:29;;;;;;;22.07;15.17;;;17.80;99.90;;;;;;5060946;28;20233;-78
2022/06/26 03:14:56;;;;;;;21.03;14.67;;;17.60;99.90;;;;;;5028796;28;20255;-78
2022/06/26 03:17:23;;;;;;;23.30;16.42;;;17.70;99.90;;;;;;5028457;28;20206;-79
2022/06/26 03:19:51;;;;;;;23.93;17.37;;;17.70;99.90;;;;;;5029170;28;20744;-76
2022/06/26 03:22:18;;;;;;;26.97;16.97;;;17.60;99.90;;;;;;5036536;28;20625;-77
2022/06/26 03:24:45;;;;;;;27.93;18.33;;;17.60;99.90;;;;;;5037126;28;20218;-77
2022/06/26 03:27:12;;;;;;;29.00;18.83;;;17.50;99.90;;;;;;5040317;28;20213;-76
2022/06/26 03:29:39;;;;;;;32.07;20.97;;;17.50;99.90;;;;;;5035804;28;20279;-77
2022/06/26 03:32:06;;;;;;;30.27;19.47;;;17.50;99.90;;;;;;5038084;28;20294;-77
2022/06/26 03:34:33;;;;;;;27.30;19.40;;;17.50;99.90;;;;;;5038118;28;20226;-76
2022/06/26 03:37:00;;;;;;;30.40;19.88;;;17.60;99.90;;;;;;5036476;28;20213;-76
2022/06/26 03:39:26;;;;;;;28.35;18.77;;;17.60;99.90;;;;;;5039211;28;20209;-76
2022/06/26 03:42:02;;;;;;;27.40;18.83;;;17.60;99.90;;;;;;5035754;28;20222;-77
2022/06/26 03:44:30;;;;;;;30.20;19.97;;;17.60;99.90;;;;;;5036969;28;20591;-76
2022/06/26 03:46:58;;;;;;;31.25;20.40;;;17.60;99.90;;;;;;5039305;28;20213;-77
2022/06/26 03:49:25;;;;;;;32.70;21.70;;;17.60;99.90;;;;;;5035511;28;20214;-77
2022/06/26 03:51:52;;;;;;;32.57;19.67;;;17.60;99.90;;;;;;5038670;28;20719;-78
2022/06/26 03:54:19;;;;;;;32.17;20.43;;;17.60;99.90;;;;;;5036309;28;20210;-77
2022/06/26 03:56:47;;;;;;;34.90;21.58;;;17.70;99.90;;;;;;5037883;28;20240;-76
2022/06/26 03:59:14;;;;;;;33.78;21.90;;;17.70;99.90;;;;;;5038124;28;20217;-77
2022/06/26 04:01:40;;;;;;;37.15;22.75;;;17.70;99.90;;;;;;5037792;28;20237;-78
2022/06/26 04:04:07;;;;;;;32.97;20.83;;;17.80;99.90;;;;;;5038504;28;20268;-77
2022/06/26 04:06:34;;;;;;;31.25;21.40;;;17.80;99.90;;;;;;5036517;28;20206;-76
2022/06/26 04:09:03;;;;;;;34.88;21.85;;;17.80;99.90;;;;;;5037844;28;20212;-77
2022/06/26 04:11:30;;;;;;;37.33;22.45;;;17.80;99.90;;;;;;5037657;28;20229;-76
2022/06/26 04:13:57;;;;;;;34.28;22.35;;;17.80;99.90;;;;;;5035515;28;20282;-76
2022/06/26 04:16:24;;;;;;;38.37;24.03;;;17.70;99.90;;;;;;5034697;28;20243;-77
2022/06/26 04:18:51;;;;;;;39.67;22.93;;;17.70;99.90;;;;;;5035629;28;20268;-76
2022/06/26 04:21:18;;;;;;;37.30;23.03;;;17.70;99.90;;;;;;5036435;28;20202;-79
2022/06/26 04:23:45;;;;;;;34.47;22.30;;;17.70;99.90;;;;;;5036879;28;20223;-79
2022/06/26 04:26:12;;;;;;;38.20;23.13;;;17.70;99.90;;;;;;5033383;28;20275;-77
2022/06/26 04:28:38;;;;;;;37.78;23.70;;;17.60;99.90;;;;;;5037906;28;20197;-78
2022/06/26 04:31:05;;;;;;;39.17;23.25;;;17.50;99.90;;;;;;5035601;28;20280;-77
2022/06/26 04:33:32;;;;;;;40.85;24.23;;;17.70;99.90;;;;;;5035078;28;20228;-78
2022/06/26 04:35:59;;;;;;;39.45;22.95;;;17.70;99.90;;;;;;5037395;28;20241;-79
2022/06/26 04:38:25;;;;;;;41.22;24.95;;;17.70;99.90;;;;;;5036513;28;20323;-78
2022/06/26 04:40:52;;;;;;;39.73;22.97;;;17.60;99.90;;;;;;5036513;28;20270;-77
2022/06/26 04:43:19;;;;;;;43.20;24.33;;;17.60;99.90;;;;;;5036725;28;20576;-77
2022/06/26 04:45:46;;;;;;;47.67;24.30;;;17.60;99.90;;;;;;5034584;28;20261;-78
2022/06/26 04:48:13;;;;;;;41.63;24.13;;;17.50;99.90;;;;;;5073612;28;20263;-78
2022/06/26 04:50:39;;;;;;;41.93;23.97;;;17.50;99.90;;;;;;5039685;28;20263;-77
2022/06/26 04:53:06;;;;;;;44.50;24.05;;;17.60;99.90;;;;;;5041401;28;20217;-78
2022/06/26 04:55:33;;;;;;;42.40;24.20;;;17.70;99.90;;;;;;5040554;28;20364;-78
2022/06/26 04:58:00;;;;;;;38.22;23.15;;;17.60;99.90;;;;;;5040092;28;20210;-76
2022/06/26 05:00:27;;;;;;;38.78;22.67;;;17.70;99.90;;;;;;5042081;28;20235;-76
2022/06/26 05:02:53;;;;;;;37.27;20.83;;;17.70;99.90;;;;;;5042542;28;20616;-77
2022/06/26 05:05:20;;;;;;;40.35;23.00;;;17.60;99.90;;;;;;5041854;28;20229;-78
2022/06/26 05:07:47;;;;;;;43.23;23.17;;;17.60;99.90;;;;;;5039682;28;20360;-78
2022/06/26 05:10:15;;;;;;;36.20;21.58;;;17.60;99.90;;;;;;5040215;28;20638;-76
2022/06/26 05:12:42;;;;;;;40.27;22.43;;;17.70;99.90;;;;;;5041053;28;20239;-77
2022/06/26 05:15:09;;;;;;;38.73;21.83;;;17.80;99.90;;;;;;5039222;28;20209;-78
2022/06/26 05:17:36;;;;;;;32.50;19.92;;;17.80;99.90;;;;;;5041372;28;20225;-77
2022/06/26 05:20:04;;;;;;;37.10;20.55;;;17.90;99.90;;;;;;5039615;28;20260;-76
2022/06/26 05:22:30;;;;;;;33.60;18.30;;;18.00;99.90;;;;;;5038532;28;20663;-78
2022/06/26 05:24:57;;;;;;;39.30;21.88;;;18.10;99.90;;;;;;5040446;28;20279;-77
2022/06/26 05:27:24;;;;;;;32.60;19.63;;;18.20;99.90;;;;;;5041797;28;20598;-76
2022/06/26 05:29:51;;;;;;;27.33;18.95;;;18.50;99.90;;;;;;5073754;28;20197;-76
2022/06/26 05:32:17;;;;;;;26.45;18.67;;;18.90;99.90;;;;;;5037824;28;20784;-76
2022/06/26 05:34:44;;;;;;;26.23;17.27;;;19.30;99.90;;;;;;5041298;28;20689;-77
2022/06/26 05:37:11;;;;;;;26.05;17.02;;;19.40;99.90;;;;;;5039295;28;20210;-77
2022/06/26 05:39:38;;;;;;;28.15;18.55;;;19.40;99.90;;;;;;5042134;28;20206;-77
2022/06/26 05:42:05;;;;;;;30.33;19.35;;;19.30;99.90;;;;;;5038962;28;20259;-78
2022/06/26 05:44:32;;;;;;;27.83;18.90;;;19.20;99.90;;;;;;5041072;28;20673;-77
2022/06/26 05:47:00;;;;;;;30.50;19.15;;;19.00;99.90;;;;;;5029648;28;20206;-76
2022/06/26 05:49:28;;;;;;;33.05;19.25;;;18.90;99.90;;;;;;5029263;28;20228;-76
2022/06/26 05:51:55;;;;;;;28.33;18.80;;;18.70;99.90;;;;;;5029557;28;20287;-75
2022/06/26 05:54:22;;;;;;;29.20;18.80;;;18.60;99.90;;;;;;5029856;28;20213;-77
2022/06/26 05:56:49;;;;;;;29.40;19.30;;;18.50;99.90;;;;;;5029749;28;20218;-76
2022/06/26 05:59:16;;;;;;;30.88;19.30;;;18.40;99.90;;;;;;5029657;28;20232;-77
2022/06/26 06:01:43;;;;;;;28.73;20.00;;;18.20;99.90;;;;;;5039223;28;20751;-77
2022/06/26 06:04:10;;;;;;;29.95;19.02;;;18.00;99.90;;;;;;5040189;28;20287;-76
2022/06/26 06:06:37;;;;;;;31.25;20.13;;;18.10;99.90;;;;;;5039081;28;20206;-76
2022/06/26 06:09:04;;;;;;;34.10;20.85;;;18.10;99.90;;;;;;5038891;28;20214;-76
2022/06/26 06:11:31;;;;;;;31.30;19.42;;;18.10;99.90;;;;;;5040774;28;20220;-77
2022/06/26 06:13:58;;;;;;;28.38;18.52;;;18.30;99.90;;;;;;5037616;28;20748;-77
2022/06/26 06:16:25;;;;;;;27.13;18.10;;;18.70;99.90;;;;;;5039213;28;20262;-75
2022/06/26 06:18:52;;;;;;;25.08;16.42;;;19.30;99.90;;;;;;5038990;28;20221;-77
2022/06/26 06:21:19;;;;;;;21.00;15.73;;;20.00;99.90;;;;;;5038334;28;20237;-77
2022/06/26 06:23:46;;;;;;;24.02;15.88;;;20.90;99.90;;;;;;5038829;28;20214;-77
2022/06/26 06:26:14;;;;;;;20.92;15.00;;;21.80;99.90;;;;;;5039903;28;20209;-76
2022/06/26 06:28:41;;;;;;;23.13;14.63;;;22.40;99.90;;;;;;5040361;28;20552;-77
2022/06/26 06:31:08;;;;;;;19.85;14.88;;;23.20;99.90;;;;;;5039844;28;20621;-76
2022/06/26 06:33:35;;;;;;;19.05;14.07;;;23.70;99.90;;;;;;5069773;28;20230;-76
2022/06/26 06:36:02;;;;;;;17.55;14.50;;;24.10;99.90;;;;;;5038554;28;20657;-77
2022/06/26 06:38:29;;;;;;;16.50;13.35;;;24.60;99.90;;;;;;5039448;28;20213;-77
2022/06/26 06:40:55;;;;;;;17.45;13.63;;;24.70;99.90;;;;;;5037403;28;20264;-76
2022/06/26 06:43:22;;;;;;;15.93;12.32;;;24.90;99.90;;;;;;5038949;28;20213;-77
2022/06/26 06:45:49;;;;;;;14.68;12.52;;;25.40;99.90;;;;;;5038229;28;20206;-79
2022/06/26 06:48:16;;;;;;;13.77;11.52;;;25.70;99.90;;;;;;5039453;28;20221;-77
2022/06/26 06:50:43;;;;;;;14.75;11.68;;;25.60;99.90;;;;;;5038245;28;20206;-76
2022/06/26 06:53:10;;;;;;;10.68;9.57;;;25.50;99.90;;;;;;5038002;28;20233;-77
2022/06/26 06:55:38;;;;;;;12.88;10.93;;;25.00;99.90;;;;;;5039939;28;20213;-76
2022/06/26 06:58:05;;;;;;;12.60;10.38;;;25.00;99.90;;;;;;5029095;28;20283;-76
2022/06/26 07:00:32;;;;;;;12.57;10.10;;;25.00;99.90;;;;;;5029024;28;20271;-76
2022/06/26 07:03:04;;;;;;;13.73;10.25;;;24.90;99.90;;;;;;5039946;28;20225;-76
2022/06/26 07:05:33;;;;;;;11.32;8.85;;;24.90;99.90;;;;;;5035726;28;20236;-75
2022/06/26 07:08:00;;;;;;;11.02;9.13;;;24.70;99.90;;;;;;5039940;28;20302;-76
2022/06/26 07:10:27;;;;;;;9.68;8.07;;;24.60;99.90;;;;;;5036631;28;20275;-76
2022/06/26 07:12:59;;;;;;;8.98;8.07;;;24.80;99.90;;;;;;5038756;28;20279;-77
2022/06/26 07:15:28;;;;;;;9.80;8.80;;;25.40;99.90;;;;;;5038706;28;20209;-76
2022/06/26 07:17:58;;;;;;;9.10;7.70;;;26.20;99.90;;;;;;5036219;28;20324;-77
2022/06/26 07:20:25;;;;;;;11.23;7.25;;;26.80;99.90;;;;;;5036013;28;20418;-77
2022/06/26 07:22:52;;;;;;;9.38;8.02;;;27.40;99.90;;;;;;5035904;28;20217;-76
2022/06/26 07:25:23;;;;;;;8.93;6.97;;;27.60;99.90;;;;;;5036218;28;20263;-74
2022/06/26 07:27:50;;;;;;;8.63;7.00;;;27.40;99.90;;;;;;5037061;28;20681;-75
2022/06/26 07:30:17;;;;;;;8.27;5.88;;;27.30;99.90;;;;;;5039766;28;20217;-76
2022/06/26 07:32:44;;;;;;;8.15;6.25;;;27.00;99.90;;;;;;5036455;28;20290;-78
2022/06/26 07:35:11;;;;;;;7.68;5.43;;;26.80;99.90;;;;;;5038481;28;20247;-77
2022/06/26 07:37:38;;;;;;;5.75;4.68;;;26.90;99.90;;;;;;5037236;28;20279;-76
2022/06/26 07:40:06;;;;;;;5.28;4.60;;;27.20;99.90;;;;;;5036559;28;20347;-77
2022/06/26 07:42:33;;;;;;;7.85;4.75;;;27.40;99.90;;;;;;5039167;28;20212;-75
2022/06/26 07:45:00;;;;;;;7.95;4.55;;;27.70;99.90;;;;;;5035475;28;20209;-75
2022/06/26 07:47:27;;;;;;;5.75;4.10;;;28.10;99.90;;;;;;5038315;28;20225;-76
2022/06/26 07:49:54;;;;;;;5.85;4.63;;;28.30;99.90;;;;;;5036816;28;20209;-75
2022/06/26 07:52:27;;;;;;;6.43;4.30;;;28.50;99.90;;;;;;5036185;28;20398;-76
2022/06/26 07:54:54;;;;;;;4.60;3.10;;;28.70;99.90;;;;;;5039493;28;20620;-76
2022/06/26 07:57:21;;;;;;;5.72;3.80;;;28.90;99.90;;;;;;5035769;28;20416;-80
2022/06/26 07:59:48;;;;;;;4.45;3.20;;;29.30;99.90;;;;;;5038292;28;20629;-76
2022/06/26 08:02:14;;;;;;;6.78;3.10;;;29.30;99.90;;;;;;5038849;28;20661;-75
2022/06/26 08:04:41;;;;;;;5.00;2.80;;;29.20;99.90;;;;;;5037439;28;20253;-76
2022/06/26 08:07:08;;;;;;;3.50;2.78;;;29.10;99.90;;;;;;5035902;28;20213;-76
2022/06/26 08:09:35;;;;;;;2.90;2.60;;;29.10;99.90;;;;;;5039000;28;20750;-77
2022/06/26 08:12:02;;;;;;;4.07;2.80;;;29.50;99.90;;;;;;5027265;28;20229;-76
2022/06/26 08:14:29;;;;;;;3.72;2.72;;;29.50;99.90;;;;;;5027007;28;20575;-77
2022/06/26 08:16:55;;;;;;;4.38;2.83;;;29.60;99.90;;;;;;5030006;28;20210;-76
2022/06/26 08:19:22;;;;;;;3.85;2.60;;;29.60;99.90;;;;;;5027080;28;20307;-77
2022/06/26 08:22:01;;;;;;;4.38;2.35;;;29.60;99.90;;;;;;5029793;28;20287;-75
2022/06/26 08:24:29;;;;;;;3.08;2.50;;;29.40;99.90;;;;;;5035822;28;20275;-76
2022/06/26 08:26:56;;;;;;;6.35;3.08;;;29.20;99.90;;;;;;5036891;28;20209;-74
2022/06/26 08:29:23;;;;;;;5.30;2.75;;;28.80;99.90;;;;;;5037827;28;20664;-76
2022/06/26 08:31:50;;;;;;;4.80;2.90;;;28.60;99.90;;;;;;5035198;28;20267;-76
2022/06/26 08:34:17;;;;;;;3.78;3.00;;;28.60;99.90;;;;;;5038560;28;20290;-77
2022/06/26 08:36:43;;;;;;;3.63;2.50;;;28.50;99.90;;;;;;5035621;28;20209;-76
2022/06/26 08:39:11;;;;;;;4.53;2.78;;;28.50;99.90;;;;;;5037408;28;20294;-76
2022/06/26 08:41:43;;;;;;;5.57;2.75;;;28.70;99.90;;;;;;5035658;28;20309;-77
2022/06/26 08:44:11;;;;;;;5.25;2.70;;;28.70;99.90;;;;;;5034768;28;20669;-77
2022/06/26 08:46:40;;;;;;;6.93;2.60;;;28.30;99.70;;;;;;5035477;28;20233;-75
2022/06/26 08:49:17;;;;;;;5.72;2.97;;;28.00;99.90;;;;;;5037394;28;20627;-78
2022/06/26 08:51:48;;;;;;;3.63;2.50;;;27.40;99.90;;;;;;5037813;28;20208;-78
2022/06/26 08:54:15;;;;;;;4.65;2.80;;;27.10;99.90;;;;;;5035853;28;20210;-78
2022/06/26 08:56:45;;;;;;;5.50;2.83;;;26.80;99.90;;;;;;5037735;28;20193;-77
2022/06/26 08:59:14;;;;;;;4.10;2.80;;;26.50;99.90;;;;;;5037923;28;20206;-78
2022/06/26 09:01:42;;;;;;;4.20;2.47;;;26.10;99.90;;;;;;5037702;28;20206;-78
2022/06/26 09:04:11;;;;;;;6.35;3.22;;;25.90;99.90;;;;;;5035139;28;20296;-77
2022/06/26 09:06:40;;;;;;;4.47;2.70;;;25.70;99.90;;;;;;5038823;28;20213;-77
2022/06/26 09:09:18;;;;;;;7.47;3.20;;;25.60;99.90;;;;;;5036548;28;20206;-76
2022/06/26 09:11:45;;;;;;;4.97;2.72;;;25.30;99.90;;;;;;5039812;28;20265;-77
2022/06/26 09:14:13;;;;;;;4.68;2.90;;;25.40;99.90;;;;;;5037415;28;20335;-78
2022/06/26 09:16:45;;;;;;;4.65;3.17;;;25.40;99.90;;;;;;5035674;28;20223;-78
2022/06/26 09:19:19;;;;;;;6.60;3.40;;;25.60;99.90;;;;;;5037738;28;20776;-79
2022/06/26 09:21:47;;;;;;;5.20;3.00;;;25.60;99.90;;;;;;5035252;28;20217;-78
2022/06/26 09:24:21;;;;;;;4.95;2.88;;;25.60;99.90;;;;;;5036536;28;20863;-78
2022/06/26 09:27:10;;;;;;;4.30;2.55;;;25.70;99.90;;;;;;5034968;28;20206;-78
2022/06/26 09:29:39;;;;;;;4.85;2.25;;;25.80;99.90;;;;;;5037378;28;20622;-78
2022/06/26 09:32:11;;;;;;;7.93;3.00;;;25.80;99.90;;;;;;5034752;28;20658;-80
2022/06/26 09:34:41;;;;;;;5.03;2.80;;;25.80;99.90;;;;;;5040830;28;20220;-79
2022/06/26 09:37:10;;;;;;;3.33;2.80;;;25.80;99.90;;;;;;5041637;28;20213;-81
2022/06/26 09:39:37;;;;;;;5.90;2.92;;;25.70;99.90;;;;;;5038687;28;20241;-78
2022/06/26 09:42:18;;;;;;;5.72;2.90;;;25.60;99.90;;;;;;5042483;28;20205;-80
2022/06/26 09:44:50;;;;;;;6.88;2.97;;;25.60;99.90;;;;;;5041093;28;20710;-80
2022/06/26 09:47:24;;;;;;;5.03;2.78;;;25.60;99.90;;;;;;5029926;28;20210;-78
2022/06/26 09:49:54;;;;;;;4.78;2.45;;;25.70;99.90;;;;;;5029952;28;20208;-78
2022/06/26 09:52:23;;;;;;;5.47;2.50;;;25.70;99.90;;;;;;5029987;28;20694;-79
2022/06/26 09:54:51;;;;;;;6.53;2.63;;;25.70;99.90;;;;;;5029992;28;20210;-78
2022/06/26 09:57:26;;;;;;;4.90;2.70;;;25.60;99.90;;;;;;5030212;28;20237;-79
2022/06/26 09:59:53;;;;;;;5.57;2.67;;;25.60;99.90;;;;;;5029414;28;21012;-79
2022/06/26 10:07:56;;;;;;;3.88;2.58;;;25.50;99.90;;;;;;5041128;28;20272;-79
2022/06/26 10:10:24;;;;;;;5.72;2.88;;;25.60;99.90;;;;;;5039657;28;20205;-79
2022/06/26 10:12:58;;;;;;;5.32;3.30;;;25.60;99.90;;;;;;5042272;28;20224;-81
2022/06/26 10:15:29;;;;;;;3.90;2.80;;;25.70;99.90;;;;;;5040246;28;20209;-79
2022/06/26 10:18:17;;;;;;;4.43;2.72;;;25.80;99.90;;;;;;5039521;28;20268;-79
2022/06/26 10:20:47;;;;;;;3.47;2.65;;;25.70;99.90;;;;;;5039135;28;20210;-79
2022/06/26 10:23:37;;;;;;;4.57;2.70;;;25.70;99.90;;;;;;5041634;28;20257;-79
2022/06/26 10:26:15;;;;;;;3.42;2.65;;;25.70;99.90;;;;;;5041963;28;20550;-77
2022/06/26 10:29:14;;;;;;;5.05;2.80;;;25.60;99.90;;;;;;5039876;28;20209;-79
2022/06/26 10:31:48;;;;;;;4.50;2.55;;;25.70;99.90;;;;;;5032585;28;20213;-80
2022/06/26 10:34:19;;;;;;;4.28;2.88;;;25.70;99.90;;;;;;5038969;28;20730;-79
2022/06/26 10:37:14;;;;;;;3.38;2.50;;;25.60;99.90;;;;;;5039851;28;20245;-79
2022/06/26 10:39:49;;;;;;;5.72;2.40;;;25.50;99.90;;;;;;5040340;28;20678;-80
2022/06/26 10:45:32;;;;;;;5.35;3.10;;;25.50;99.90;;;;;;5038197;28;20205;-80
2022/06/26 10:48:02;;;;;;;3.90;2.55;;;25.50;99.90;;;;;;5037999;28;20226;-78
2022/06/26 10:50:32;;;;;;;4.47;2.80;;;25.50;99.90;;;;;;5040273;28;20205;-81
2022/06/26 10:53:26;;;;;;;7.07;3.28;;;25.40;99.90;;;;;;5040162;28;20731;-78
2022/06/26 10:56:01;;;;;;;4.55;2.30;;;25.30;99.90;;;;;;5040850;28;20205;-78
2022/06/26 10:58:37;;;;;;;5.32;2.80;;;25.20;99.90;;;;;;5039063;28;20224;-78
2022/06/26 11:01:09;;;;;;;5.45;3.05;;;25.10;99.90;;;;;;5041967;28;20205;-80
2022/06/26 11:03:38;;;;;;;4.22;3.08;;;25.10;99.90;;;;;;5037492;28;20609;-79
2022/06/26 11:06:11;;;;;;;4.03;2.97;;;25.00;99.90;;;;;;5039017;28;20275;-77
2022/06/26 11:08:47;;;;;;;3.58;3.00;;;24.90;99.90;;;;;;5039022;28;20222;-80
2022/06/26 11:11:15;;;;;;;3.75;3.33;;;24.90;99.90;;;;;;5038380;28;20283;-78
2022/06/26 11:13:55;;;;;;;4.97;3.20;;;24.90;99.90;;;;;;5039719;28;20657;-79
2022/06/26 11:16:44;;;;;;;4.80;3.17;;;25.00;99.90;;;;;;5039562;28;20716;-78
2022/06/26 11:19:25;;;;;;;3.45;3.00;;;25.10;99.90;;;;;;5039245;28;20697;-78
2022/06/26 11:22:11;;;;;;;5.32;3.22;;;25.20;99.90;;;;;;5036911;28;20274;-79
2022/06/26 11:24:57;;;;;;;4.35;2.67;;;25.40;99.90;;;;;;5038109;28;20240;-78
2022/06/26 11:27:28;;;;;;;4.40;2.88;;;25.50;99.90;;;;;;5071027;28;20359;-78
2022/06/26 11:29:55;;;;;;;5.75;3.15;;;25.70;99.90;;;;;;5038708;28;20215;-77
2022/06/26 11:32:23;;;;;;;3.30;2.55;;;25.80;99.90;;;;;;5036356;28;20614;-78
2022/06/26 11:34:55;;;;;;;3.78;2.67;;;25.90;99.90;;;;;;5039703;28;20225;-78
2022/06/26 11:37:36;;;;;;;6.65;2.53;;;25.90;99.90;;;;;;5038602;28;20224;-79
2022/06/26 11:40:14;;;;;;;3.00;2.38;;;25.90;99.90;;;;;;5039920;28;20651;-77
2022/06/26 11:42:41;;;;;;;3.28;2.53;;;26.00;99.90;;;;;;5037877;28;20276;-78
2022/06/26 11:45:09;;;;;;;2.90;2.50;;;25.90;99.90;;;;;;5037193;28;20658;-80
2022/06/26 11:47:37;;;;;;;6.28;2.25;;;25.90;99.90;;;;;;5039488;28;20782;-79
2022/06/26 11:50:07;;;;;;;5.97;3.00;;;25.90;99.90;;;;;;5036723;28;20264;-78
2022/06/26 11:52:34;;;;;;;3.65;2.38;;;25.80;99.90;;;;;;5038254;28;20232;-78
2022/06/26 11:55:01;;;;;;;5.93;2.50;;;25.80;99.90;;;;;;5037287;28;20678;-79
2022/06/26 11:57:36;;;;;;;4.18;2.58;;;25.80;99.90;;;;;;5034069;28;20686;-79
2022/06/26 12:00:06;;;;;;;5.38;2.83;;;25.70;99.90;;;;;;5035902;28;20222;-79
2022/06/26 12:02:41;;;;;;;5.00;2.60;;;25.70;99.90;;;;;;5039400;28;20225;-78
2022/06/26 12:05:08;;;;;;;5.60;2.75;;;25.70;99.90;;;;;;5038717;28;20569;-79
2022/06/26 12:07:47;;;;;;;8.82;2.78;;;25.60;99.90;;;;;;5027401;28;20736;-79
2022/06/26 12:10:32;;;;;;;3.28;2.42;;;25.60;99.90;;;;;;5028208;28;20209;-81
2022/06/26 12:13:00;;;;;;;3.97;2.60;;;25.50;99.90;;;;;;5026897;28;20225;-80
2022/06/26 12:15:33;;;;;;;3.05;2.33;;;25.30;99.90;;;;;;5033713;28;20213;-78
2022/06/26 12:18:02;;;;;;;6.03;2.80;;;25.20;99.90;;;;;;5035180;28;20218;-77
2022/06/26 12:20:35;;;;;;;4.15;2.65;;;25.20;99.90;;;;;;5037830;28;20700;-79
2022/06/26 12:23:03;;;;;;;4.85;3.25;;;25.00;99.90;;;;;;5033518;28;20205;-79
2022/06/26 12:25:32;;;;;;;6.43;2.92;;;24.90;99.90;;;;;;5035992;28;20212;-77
2022/06/26 12:28:00;;;;;;;5.25;3.00;;;24.80;99.90;;;;;;5039084;28;20205;-78
2022/06/26 12:30:36;;;;;;;5.50;2.97;;;24.60;99.90;;;;;;5036506;28;20213;-79
2022/06/26 12:33:05;;;;;;;4.45;2.72;;;24.50;99.90;;;;;;5034738;28;20295;-78
2022/06/26 12:35:33;;;;;;;4.25;2.75;;;24.40;99.90;;;;;;5039056;28;20205;-79
2022/06/26 12:38:00;;;;;;;5.38;2.95;;;24.30;99.90;;;;;;5036555;28;20206;-78
2022/06/26 12:40:29;;;;;;;5.72;2.95;;;24.10;99.90;;;;;;5037825;28;20246;-80
2022/06/26 12:42:55;;;;;;;4.95;2.90;;;24.10;99.90;;;;;;5037747;28;21058;-79
2022/06/26 12:45:22;;;;;;;6.70;2.97;;;24.10;99.90;;;;;;5036230;28;20228;-79
2022/06/26 12:47:50;;;;;;;6.57;3.58;;;24.10;99.90;;;;;;5035352;28;20229;-80
2022/06/26 12:50:20;;;;;;;4.95;3.50;;;24.00;99.90;;;;;;5038278;28;20271;-80
2022/06/26 12:52:49;;;;;;;9.75;3.45;;;24.00;99.90;;;;;;5036748;28;20625;-78
2022/06/26 12:55:16;;;;;;;6.47;3.90;;;24.00;99.90;;;;;;5034749;28;20661;-78
2022/06/26 12:57:44;;;;;;;4.18;3.45;;;23.90;99.90;;;;;;5067353;28;20237;-80
2022/06/26 13:00:11;;;;;;;5.70;3.22;;;23.80;99.90;;;;;;5035534;28;20209;-80